Time;durP1;ratioP1;P1;durP2;ratioP2;P2;SDS_P1;SDS_P2;PMS_P1;PMS_P2;Temp;Humidity;BMP_temperature;BMP_pressure;BME280_temperature;BME280_humidity;BME280_pressure;Samples;Min_cycle;Max_cycle;Signal;HPM_P1;HPM_P2
2023/05/27 00:00:53;;;;;;;11.57;10.87;;;16.50;99.90;;;;;;4909132;29;20501;-86
2023/05/27 00:03:22;;;;;;;13.13;12.23;;;16.50;99.90;;;;;;4907917;29;20477;-86
2023/05/27 00:05:50;;;;;;;11.60;11.00;;;16.50;99.90;;;;;;4910431;29;20466;-87
2023/05/27 00:08:20;;;;;;;12.63;11.17;;;16.50;99.90;;;;;;4906184;29;20454;-87
2023/05/27 00:10:49;;;;;;;11.40;10.70;;;16.50;99.90;;;;;;4906668;29;20595;-86
2023/05/27 00:13:17;;;;;;;13.63;12.57;;;16.50;99.90;;;;;;4906221;29;20537;-89
2023/05/27 00:15:45;;;;;;;13.07;12.13;;;16.50;99.90;;;;;;4910015;29;20529;-87
2023/05/27 00:18:13;;;;;;;12.53;11.63;;;16.50;99.90;;;;;;4909244;29;20467;-86
2023/05/27 00:20:42;;;;;;;11.57;10.70;;;16.60;99.90;;;;;;4909112;29;20493;-87
2023/05/27 00:23:10;;;;;;;11.30;10.60;;;16.50;99.90;;;;;;4906597;29;20971;-87
2023/05/27 00:25:40;;;;;;;11.50;10.80;;;16.50;99.90;;;;;;4908381;29;20561;-87
2023/05/27 00:28:08;;;;;;;11.57;10.77;;;16.50;99.90;;;;;;4905476;29;21189;-86
2023/05/27 00:30:37;;;;;;;11.77;10.97;;;16.50;99.90;;;;;;4907367;29;20615;-87
2023/05/27 00:33:05;;;;;;;12.23;11.23;;;16.50;99.90;;;;;;4911835;29;20477;-86
2023/05/27 00:35:33;;;;;;;12.37;11.43;;;16.50;99.90;;;;;;4907624;29;20499;-88
2023/05/27 00:38:02;;;;;;;11.30;10.70;;;16.50;99.90;;;;;;4909759;29;20457;-87
2023/05/27 00:40:31;;;;;;;12.73;11.60;;;16.50;99.90;;;;;;4904512;29;20484;-86
2023/05/27 00:43:00;;;;;;;11.97;10.93;;;16.40;99.90;;;;;;4909859;29;20468;-86
2023/05/27 00:45:28;;;;;;;11.40;10.70;;;16.30;99.90;;;;;;4906420;29;20468;-86
2023/05/27 00:47:57;;;;;;;11.60;10.90;;;16.30;99.90;;;;;;4908899;29;20498;-86
2023/05/27 00:50:29;;;;;;;13.73;12.67;;;16.30;99.90;;;;;;4902177;29;20496;-86
2023/05/27 00:52:57;;;;;;;12.70;11.80;;;16.30;99.90;;;;;;4909033;29;20492;-86
2023/05/27 00:55:25;;;;;;;12.20;11.40;;;16.30;99.90;;;;;;4907836;29;20510;-87
2023/05/27 00:57:54;;;;;;;11.47;10.70;;;16.30;99.90;;;;;;4907973;29;20474;-87
2023/05/27 01:00:24;;;;;;;11.07;10.27;;;16.20;99.90;;;;;;4908655;29;21086;-87
2023/05/27 01:02:52;;;;;;;11.10;10.47;;;16.20;99.90;;;;;;4907428;29;20468;-87
2023/05/27 01:05:21;;;;;;;11.00;10.10;;;16.20;99.90;;;;;;4906847;29;20454;-86
2023/05/27 01:08:04;;;;;;;11.07;10.20;;;16.10;99.90;;;;;;4909181;29;20996;-83
2023/05/27 01:10:40;;;;;;;11.73;11.03;;;16.10;99.90;;;;;;4908160;29;21046;-87
2023/05/27 01:13:16;;;;;;;11.67;10.53;;;16.10;99.90;;;;;;4905109;29;20456;-84
2023/05/27 01:15:48;;;;;;;12.63;10.67;;;16.10;99.90;;;;;;4911665;29;20465;-85
2023/05/27 01:18:18;;;;;;;11.80;10.83;;;16.00;99.90;;;;;;4903293;29;20486;-84
2023/05/27 01:20:49;;;;;;;12.33;10.50;;;15.90;99.90;;;;;;4904984;29;21235;-84
2023/05/27 01:23:19;;;;;;;10.17;9.67;;;16.00;99.90;;;;;;4904767;29;20546;-84
2023/05/27 01:25:47;;;;;;;11.03;10.23;;;15.90;99.90;;;;;;4906084;29;20840;-89
2023/05/27 01:28:16;;;;;;;11.77;10.73;;;15.90;99.90;;;;;;4921956;29;20468;-85
2023/05/27 01:30:44;;;;;;;12.47;11.57;;;16.00;99.90;;;;;;4909152;29;20497;-87
2023/05/27 01:33:20;;;;;;;11.00;10.20;;;15.90;99.90;;;;;;4909506;29;20544;-86
2023/05/27 01:35:53;;;;;;;11.20;10.40;;;15.90;99.90;;;;;;4904503;29;20891;-88
2023/05/27 01:38:27;;;;;;;11.33;10.53;;;15.90;99.90;;;;;;4907062;29;20517;-86
2023/05/27 01:40:55;;;;;;;11.30;10.40;;;15.90;99.90;;;;;;4903313;29;20488;-86
2023/05/27 01:43:23;;;;;;;11.30;10.50;;;15.90;99.90;;;;;;4907779;29;21116;-86
2023/05/27 01:45:52;;;;;;;12.90;11.80;;;15.90;99.90;;;;;;4909326;29;20501;-86
2023/05/27 01:48:21;;;;;;;10.70;9.90;;;15.90;99.90;;;;;;4909012;29;21039;-86
2023/05/27 01:50:49;;;;;;;10.40;9.70;;;15.80;99.90;;;;;;4923710;29;20512;-86
2023/05/27 01:53:18;;;;;;;11.57;10.43;;;15.80;99.90;;;;;;4910734;29;20456;-85
2023/05/27 01:55:47;;;;;;;10.83;10.00;;;15.80;99.90;;;;;;4908443;29;20561;-85
2023/05/27 01:58:16;;;;;;;11.90;10.70;;;15.80;99.90;;;;;;4912082;29;20990;-85
2023/05/27 02:00:44;;;;;;;10.47;10.00;;;15.80;99.90;;;;;;4910721;29;20491;-89
2023/05/27 02:03:12;;;;;;;11.77;10.70;;;15.80;99.90;;;;;;4905067;29;20494;-86
2023/05/27 02:05:42;;;;;;;11.37;10.30;;;15.80;99.90;;;;;;4904557;29;20542;-85
2023/05/27 02:08:10;;;;;;;10.70;10.00;;;15.70;99.90;;;;;;4905217;29;20813;-85
2023/05/27 02:10:38;;;;;;;11.07;10.10;;;15.70;99.90;;;;;;4905395;29;20837;-84
2023/05/27 02:13:08;;;;;;;10.67;9.93;;;15.60;99.90;;;;;;4911924;29;20990;-85
2023/05/27 02:15:36;;;;;;;12.27;11.07;;;15.60;99.90;;;;;;4900370;29;20465;-84
2023/05/27 02:18:05;;;;;;;11.50;10.50;;;15.60;99.90;;;;;;4925118;29;20483;-89
2023/05/27 02:20:33;;;;;;;11.30;10.40;;;15.60;99.90;;;;;;4911343;29;20571;-86
2023/05/27 02:23:07;;;;;;;11.83;11.03;;;15.50;99.90;;;;;;4909890;29;20507;-88
2023/05/27 02:25:35;;;;;;;10.87;10.00;;;15.50;99.90;;;;;;4907818;29;20554;-87
2023/05/27 02:28:03;;;;;;;10.30;9.77;;;15.50;99.90;;;;;;4905425;29;21254;-86
2023/05/27 02:30:33;;;;;;;10.90;10.10;;;15.40;99.90;;;;;;4908490;29;20527;-86
2023/05/27 02:33:01;;;;;;;11.00;10.10;;;15.40;99.90;;;;;;4905410;29;20453;-86
2023/05/27 02:35:29;;;;;;;11.37;10.57;;;15.40;99.90;;;;;;4907829;29;20468;-86
2023/05/27 02:37:57;;;;;;;12.40;11.60;;;15.30;99.90;;;;;;4911732;29;20463;-86
2023/05/27 02:40:26;;;;;;;11.93;10.80;;;15.30;99.90;;;;;;4910343;29;20487;-86
2023/05/27 02:42:54;;;;;;;11.40;10.60;;;15.30;99.90;;;;;;4907064;29;20478;-87
2023/05/27 02:45:23;;;;;;;12.30;11.13;;;15.20;99.90;;;;;;4907174;29;20494;-87
2023/05/27 02:47:55;;;;;;;11.30;10.20;;;15.20;99.90;;;;;;4909131;29;20505;-88
2023/05/27 02:50:36;;;;;;;11.17;10.37;;;15.20;99.90;;;;;;4902086;29;21260;-87
2023/05/27 02:53:25;;;;;;;11.47;10.37;;;15.10;99.90;;;;;;4908611;29;20442;-86
2023/05/27 02:55:55;;;;;;;11.43;10.70;;;15.10;99.90;;;;;;4910254;29;20526;-86
2023/05/27 02:58:30;;;;;;;11.87;10.97;;;15.10;99.90;;;;;;4905395;29;20552;-86
2023/05/27 03:01:00;;;;;;;11.53;10.60;;;15.10;99.90;;;;;;4909427;29;20503;-87
2023/05/27 03:03:33;;;;;;;11.33;10.13;;;15.00;99.90;;;;;;4910284;29;20567;-86
2023/05/27 03:06:03;;;;;;;10.50;9.80;;;15.00;99.90;;;;;;4904906;29;20474;-86
2023/05/27 03:08:31;;;;;;;11.33;10.37;;;15.00;99.90;;;;;;4910665;29;20879;-85
2023/05/27 03:11:33;;;;;;;11.10;10.07;;;15.00;99.90;;;;;;4910625;29;20483;-86
2023/05/27 03:14:14;;;;;;;11.83;10.80;;;15.00;99.90;;;;;;4913125;29;20463;-86
2023/05/27 03:16:51;;;;;;;10.93;10.13;;;14.90;99.90;;;;;;4909656;29;20546;-86
2023/05/27 03:19:30;;;;;;;14.20;11.43;;;14.90;99.90;;;;;;4912921;29;20454;-86
2023/05/27 03:21:58;;;;;;;11.23;10.50;;;14.90;99.90;;;;;;4909883;29;20487;-86
2023/05/27 03:24:31;;;;;;;10.37;9.70;;;14.80;99.90;;;;;;4913770;29;20558;-85
2023/05/27 03:27:01;;;;;;;12.57;11.00;;;14.80;99.90;;;;;;4912249;29;20468;-85
2023/05/27 03:29:56;;;;;;;11.00;10.20;;;14.80;99.90;;;;;;4910005;29;20476;-86
2023/05/27 03:35:57;;;;;;;12.03;11.10;;;14.80;99.90;;;;;;4885188;29;20510;-85
2023/05/27 03:38:55;;;;;;;11.53;10.50;;;14.70;99.90;;;;;;4907449;29;20542;-86
2023/05/27 03:41:56;;;;;;;11.53;10.57;;;14.70;99.90;;;;;;4921478;29;20499;-85
2023/05/27 03:44:25;;;;;;;10.67;9.83;;;14.70;99.90;;;;;;4911890;29;20461;-86
2023/05/27 03:46:55;;;;;;;11.87;10.80;;;14.60;99.90;;;;;;4912378;29;20474;-86
2023/05/27 03:49:23;;;;;;;10.70;9.80;;;14.60;99.90;;;;;;4911616;29;20950;-87
2023/05/27 03:51:53;;;;;;;11.73;10.63;;;14.60;99.90;;;;;;4914375;29;20481;-87
2023/05/27 03:54:22;;;;;;;10.30;9.77;;;14.60;99.90;;;;;;4909941;29;20998;-87
2023/05/27 03:56:58;;;;;;;11.10;10.30;;;14.60;99.90;;;;;;4911154;29;20538;-86
2023/05/27 03:59:35;;;;;;;10.43;9.70;;;14.60;99.90;;;;;;4909855;29;20466;-87
2023/05/27 04:02:03;;;;;;;10.50;9.70;;;14.60;99.90;;;;;;4910541;29;20460;-87
2023/05/27 04:04:32;;;;;;;10.80;10.10;;;14.60;99.90;;;;;;4907240;29;20466;-87
2023/05/27 04:07:05;;;;;;;11.07;10.13;;;14.60;99.90;;;;;;4903651;29;20451;-86
2023/05/27 04:09:34;;;;;;;10.50;9.80;;;14.70;99.90;;;;;;4903569;29;20979;-87
2023/05/27 04:12:28;;;;;;;10.53;9.80;;;14.70;99.90;;;;;;4901176;29;20463;-88
2023/05/27 04:14:57;;;;;;;10.73;9.73;;;14.60;99.90;;;;;;4906864;29;20511;-86
2023/05/27 04:17:39;;;;;;;9.63;9.20;;;14.60;99.90;;;;;;4903269;29;20821;-85
2023/05/27 04:20:36;;;;;;;10.47;9.57;;;14.60;99.90;;;;;;4905750;29;20535;-85
2023/05/27 04:23:17;;;;;;;10.93;10.23;;;14.60;99.90;;;;;;4910444;29;20487;-87
2023/05/27 04:25:52;;;;;;;11.20;10.40;;;14.60;99.90;;;;;;4922677;29;20458;-88
2023/05/27 04:29:09;;;;;;;10.97;9.87;;;14.60;99.90;;;;;;4908079;29;20476;-88
2023/05/27 04:31:37;;;;;;;11.47;10.50;;;14.60;99.90;;;;;;4902672;29;21000;-87
2023/05/27 04:34:06;;;;;;;11.40;10.27;;;14.60;99.90;;;;;;4906804;29;20463;-87
2023/05/27 04:36:35;;;;;;;11.13;10.00;;;14.60;99.90;;;;;;4910353;29;20459;-88
2023/05/27 04:39:05;;;;;;;11.77;10.63;;;14.60;99.90;;;;;;4907050;29;20545;-87
2023/05/27 04:41:33;;;;;;;12.87;11.27;;;14.60;99.90;;;;;;4908770;29;20490;-87
2023/05/27 04:44:02;;;;;;;11.03;10.03;;;14.70;99.90;;;;;;4912371;29;20479;-86
2023/05/27 04:46:30;;;;;;;11.30;10.20;;;14.60;99.90;;;;;;4908644;29;20474;-86
2023/05/27 04:48:59;;;;;;;12.80;10.50;;;14.60;99.90;;;;;;4908734;29;20465;-84
2023/05/27 04:51:27;;;;;;;12.93;10.77;;;14.70;99.90;;;;;;4908452;29;20485;-87
2023/05/27 04:53:56;;;;;;;10.67;10.00;;;14.70;99.90;;;;;;4907837;29;20470;-86
2023/05/27 04:56:26;;;;;;;11.30;10.60;;;14.70;99.90;;;;;;4906616;29;20488;-85
2023/05/27 04:58:55;;;;;;;12.50;11.20;;;14.70;99.90;;;;;;4922134;29;20462;-86
2023/05/27 05:01:25;;;;;;;10.90;10.10;;;14.70;99.90;;;;;;4905380;29;21340;-84
2023/05/27 05:04:10;;;;;;;13.10;11.30;;;14.80;99.90;;;;;;4906132;29;20484;-86
2023/05/27 05:06:40;;;;;;;11.83;10.97;;;14.80;99.90;;;;;;4904874;29;21074;-85
2023/05/27 05:09:09;;;;;;;12.73;11.73;;;14.80;99.90;;;;;;4906780;29;21031;-87
2023/05/27 05:11:38;;;;;;;12.23;11.43;;;14.80;99.90;;;;;;4905361;29;20566;-85
2023/05/27 05:17:51;;;;;;;12.27;11.40;;;14.90;99.90;;;;;;4906615;29;20470;-85
2023/05/27 05:20:38;;;;;;;12.17;11.17;;;15.00;99.90;;;;;;4905446;29;20522;-86
2023/05/27 05:23:57;;;;;;;12.73;11.87;;;15.00;99.90;;;;;;4907681;29;20462;-85
2023/05/27 05:30:46;;;;;;;12.80;11.77;;;15.00;99.90;;;;;;4901962;29;20486;-87
2023/05/27 05:33:14;;;;;;;13.87;12.50;;;15.20;99.90;;;;;;4899627;29;20520;-87
2023/05/27 05:36:04;;;;;;;11.30;10.50;;;15.10;99.90;;;;;;4892827;29;20467;-88
2023/05/27 05:39:02;;;;;;;12.73;11.63;;;15.10;99.90;;;;;;4906313;29;20974;-87
2023/05/27 05:49:30;;;;;;;11.83;10.80;;;15.40;99.90;;;;;;4781288;29;20472;-86
2023/05/27 05:52:42;;;;;;;13.10;11.60;;;15.40;99.90;;;;;;4837076;29;20466;-89
2023/05/27 05:59:43;;;;;;;12.80;11.53;;;15.50;99.90;;;;;;4848913;29;20532;-86
2023/05/27 06:02:11;;;;;;;11.67;10.93;;;15.60;99.90;;;;;;4845194;29;20627;-85
2023/05/27 06:05:11;;;;;;;12.13;11.07;;;15.70;99.90;;;;;;4850614;29;21019;-86
2023/05/27 06:07:39;;;;;;;13.33;12.10;;;15.80;99.90;;;;;;4843916;29;20977;-86
2023/05/27 06:10:09;;;;;;;14.33;12.77;;;15.80;99.90;;;;;;4847106;29;20493;-85
2023/05/27 06:12:39;;;;;;;12.00;11.10;;;15.80;99.90;;;;;;4850407;29;21049;-87
2023/05/27 06:22:28;;;;;;;11.90;10.93;;;16.10;99.90;;;;;;5004864;23;20513;-85
2023/05/27 06:25:11;;;;;;;12.60;11.70;;;16.10;99.90;;;;;;4928134;29;20518;-85
2023/05/27 06:36:41;;;;;;;13.63;12.67;;;16.50;99.90;;;;;;4903503;29;20532;-86
2023/05/27 06:39:44;;;;;;;13.27;12.37;;;16.70;99.90;;;;;;4901826;29;20841;-85
2023/05/27 06:42:15;;;;;;;14.33;13.10;;;16.80;99.90;;;;;;4899558;29;20501;-86
2023/05/27 06:45:13;;;;;;;14.57;13.57;;;16.90;99.90;;;;;;4906994;29;20492;-85
2023/05/27 06:47:41;;;;;;;14.40;13.13;;;17.00;99.90;;;;;;4901720;29;20461;-85
2023/05/27 06:50:10;;;;;;;14.00;13.10;;;17.10;99.90;;;;;;4903197;29;21934;-86
2023/05/27 06:52:39;;;;;;;13.63;12.80;;;17.20;99.90;;;;;;4894402;29;20460;-85
2023/05/27 06:55:09;;;;;;;14.00;13.03;;;17.20;99.90;;;;;;4908453;29;20490;-82
2023/05/27 06:57:37;;;;;;;13.83;13.03;;;17.30;99.90;;;;;;4902996;29;20512;-84
2023/05/27 07:00:08;;;;;;;13.93;13.20;;;17.30;99.90;;;;;;4903875;29;20475;-84
2023/05/27 07:02:36;;;;;;;15.57;14.40;;;17.40;99.90;;;;;;4902229;29;20461;-87
2023/05/27 07:05:05;;;;;;;15.70;14.40;;;17.50;99.90;;;;;;4903494;29;20485;-83
2023/05/27 07:07:33;;;;;;;15.40;14.40;;;17.60;99.90;;;;;;4899119;29;21269;-88
2023/05/27 07:10:01;;;;;;;16.90;15.47;;;17.60;99.90;;;;;;4906213;29;20484;-83
2023/05/27 07:12:31;;;;;;;17.70;16.20;;;17.70;99.90;;;;;;4906433;29;20470;-83
2023/05/27 07:14:59;;;;;;;15.33;14.30;;;17.70;99.90;;;;;;4904017;29;20550;-83
2023/05/27 07:17:27;;;;;;;15.17;14.17;;;17.70;99.90;;;;;;4901475;29;20486;-83
2023/05/27 07:19:56;;;;;;;16.20;14.93;;;17.70;99.90;;;;;;4903307;29;20504;-82
2023/05/27 07:22:25;;;;;;;15.50;14.50;;;17.80;99.90;;;;;;4906360;29;20456;-82
2023/05/27 07:24:53;;;;;;;16.13;15.07;;;17.90;99.90;;;;;;4903408;29;20493;-82
2023/05/27 07:27:21;;;;;;;16.77;15.43;;;17.90;99.90;;;;;;4895207;29;20530;-85
2023/05/27 07:29:51;;;;;;;16.77;15.70;;;17.80;99.90;;;;;;4901033;29;20470;-84
2023/05/27 07:32:19;;;;;;;15.73;14.83;;;17.80;99.90;;;;;;4895075;29;20525;-81
2023/05/27 07:42:20;;;;;;;16.63;15.10;;;18.00;99.90;;;;;;4856038;29;20526;-85
2023/05/27 07:44:53;;;;;;;15.87;14.97;;;18.10;99.90;;;;;;4864533;29;20538;-83
2023/05/27 07:48:12;;;;;;;15.80;14.50;;;18.10;99.90;;;;;;4865179;29;20465;-84
2023/05/27 07:50:41;;;;;;;17.80;16.43;;;18.20;99.90;;;;;;4825569;29;20579;-83
2023/05/27 07:53:24;;;;;;;17.00;15.40;;;18.20;99.90;;;;;;4867521;29;20471;-86
2023/05/27 08:00:07;;;;;;;16.10;15.10;;;18.30;99.90;;;;;;4712584;30;20475;-84
2023/05/27 08:10:56;;;;;;;16.33;15.50;;;18.50;99.90;;;;;;4747516;30;20630;-84
2023/05/27 08:13:55;;;;;;;18.13;16.63;;;18.50;99.90;;;;;;4831786;29;20523;-85
2023/05/27 08:16:30;;;;;;;17.17;16.23;;;18.60;99.90;;;;;;4843339;29;20471;-85
2023/05/27 08:19:40;;;;;;;16.23;15.30;;;18.60;99.90;;;;;;4846110;29;20904;-84
2023/05/27 08:23:07;;;;;;;16.93;15.80;;;18.70;99.90;;;;;;4899986;29;20727;-84
2023/05/27 08:25:35;;;;;;;16.60;15.63;;;18.70;99.90;;;;;;4905285;29;20485;-85
2023/05/27 08:28:12;;;;;;;17.43;16.13;;;18.80;99.90;;;;;;4903576;29;20499;-87
2023/05/27 08:30:47;;;;;;;18.23;16.93;;;18.90;99.90;;;;;;4906198;29;20503;-83
2023/05/27 08:33:18;;;;;;;17.83;16.03;;;19.00;99.90;;;;;;4904513;29;20497;-84
2023/05/27 08:36:27;;;;;;;18.67;17.10;;;19.00;99.90;;;;;;4903011;29;20470;-84
2023/05/27 08:39:26;;;;;;;18.37;17.27;;;19.00;99.90;;;;;;4907503;29;20458;-83
2023/05/27 08:42:11;;;;;;;19.17;17.67;;;19.10;99.90;;;;;;4909305;29;20520;-83
2023/05/27 08:45:22;;;;;;;18.17;17.07;;;19.10;99.90;;;;;;4907152;29;20484;-84
2023/05/27 08:52:22;;;;;;;18.73;17.70;;;19.20;99.90;;;;;;4903942;29;20430;-85
2023/05/27 08:54:53;;;;;;;19.37;18.00;;;19.30;99.90;;;;;;4919005;29;20458;-85
2023/05/27 08:58:10;;;;;;;18.73;17.67;;;19.40;99.90;;;;;;4904799;29;20939;-85
2023/05/27 09:00:42;;;;;;;18.40;17.10;;;19.40;99.90;;;;;;4901613;29;20481;-86
2023/05/27 09:03:16;;;;;;;18.87;17.20;;;19.40;99.90;;;;;;4906637;29;20450;-86
2023/05/27 09:09:59;;;;;;;17.73;16.50;;;19.60;99.90;;;;;;4906918;29;20447;-84
2023/05/27 09:12:28;;;;;;;18.30;17.30;;;19.70;99.90;;;;;;4905178;29;20498;-86
2023/05/27 09:15:18;;;;;;;18.03;16.90;;;19.70;99.90;;;;;;4907129;29;20655;-85
2023/05/27 09:21:48;;;;;;;19.33;17.93;;;19.80;99.90;;;;;;4845075;29;20483;-82
2023/05/27 09:24:16;;;;;;;18.17;17.07;;;19.90;99.90;;;;;;4849248;29;20468;-81
2023/05/27 09:26:44;;;;;;;17.60;16.30;;;19.90;99.90;;;;;;4833649;29;20468;-80
2023/05/27 09:29:12;;;;;;;17.80;16.70;;;20.00;99.90;;;;;;4828818;29;20460;-82
2023/05/27 09:31:57;;;;;;;17.97;16.93;;;20.10;99.90;;;;;;4845128;29;20492;-81
2023/05/27 09:34:30;;;;;;;18.27;17.20;;;20.10;99.90;;;;;;4841248;29;20452;-82
2023/05/27 09:37:36;;;;;;;16.97;16.10;;;20.20;99.90;;;;;;4844615;29;20894;-86
2023/05/27 09:40:30;;;;;;;18.70;17.40;;;20.20;99.90;;;;;;4843834;29;20488;-83
2023/05/27 09:43:17;;;;;;;18.60;17.70;;;20.20;99.90;;;;;;4845722;29;20465;-83
2023/05/27 09:45:47;;;;;;;19.27;18.03;;;20.30;99.90;;;;;;4846827;29;20909;-84
2023/05/27 09:48:24;;;;;;;19.47;18.40;;;20.30;99.90;;;;;;4848278;29;20476;-85
2023/05/27 09:51:04;;;;;;;17.83;16.80;;;20.30;99.90;;;;;;4843681;29;20494;-84
2023/05/27 09:54:06;;;;;;;20.47;18.97;;;20.40;99.90;;;;;;4845339;29;20595;-83
2023/05/27 09:56:48;;;;;;;19.70;18.60;;;20.40;99.90;;;;;;4906447;29;20454;-83
2023/05/27 09:59:16;;;;;;;19.20;18.20;;;20.40;99.90;;;;;;4902811;29;20834;-83
2023/05/27 10:01:47;;;;;;;20.17;19.17;;;20.40;99.90;;;;;;4902248;29;20474;-84
2023/05/27 10:04:27;;;;;;;20.97;19.77;;;20.40;99.90;;;;;;4903961;29;20466;-84
2023/05/27 10:07:07;;;;;;;19.17;17.97;;;20.40;99.90;;;;;;4916086;29;20493;-83
2023/05/27 10:10:21;;;;;;;18.63;17.47;;;20.40;99.90;;;;;;4901298;29;20462;-85
2023/05/27 10:13:22;;;;;;;18.57;17.20;;;20.50;99.90;;;;;;4915346;29;21006;-83
2023/05/27 10:22:12;;;;;;;20.03;18.80;;;20.70;99.90;;;;;;4897527;29;20872;-81
2023/05/27 10:24:41;;;;;;;17.53;16.63;;;20.80;99.90;;;;;;4899183;29;20926;-83
2023/05/27 10:34:46;;;;;;;19.50;18.10;;;20.90;99.90;;;;;;4893843;29;20506;-82
2023/05/27 10:37:38;;;;;;;21.40;19.50;;;21.00;99.90;;;;;;4900293;29;20465;-83
2023/05/27 10:40:11;;;;;;;20.30;18.73;;;21.00;99.90;;;;;;4895782;29;20490;-82
2023/05/27 10:42:53;;;;;;;17.80;16.80;;;20.90;99.90;;;;;;4896243;29;20454;-82
2023/05/27 10:45:39;;;;;;;18.73;17.40;;;21.00;99.90;;;;;;4904108;29;20504;-84
2023/05/27 10:48:16;;;;;;;18.10;16.90;;;21.00;99.90;;;;;;4890612;29;20487;-82
2023/05/27 10:50:51;;;;;;;19.63;18.23;;;21.10;99.90;;;;;;4895564;29;20516;-79
2023/05/27 10:53:21;;;;;;;18.97;18.07;;;21.20;99.90;;;;;;4896880;29;20476;-83
2023/05/27 10:55:51;;;;;;;19.50;18.27;;;21.20;99.90;;;;;;4898742;29;21241;-83
2023/05/27 10:58:20;;;;;;;18.90;17.57;;;21.30;99.90;;;;;;4898248;29;21193;-85
2023/05/27 11:00:50;;;;;;;19.37;18.10;;;21.30;99.90;;;;;;4902439;29;20503;-83
2023/05/27 11:03:23;;;;;;;18.60;17.50;;;21.30;99.90;;;;;;4899285;29;21912;-84
2023/05/27 11:06:00;;;;;;;18.30;17.03;;;21.30;99.90;;;;;;4900889;29;20466;-82
2023/05/27 11:08:30;;;;;;;17.67;16.47;;;21.30;99.90;;;;;;4895256;29;20625;-84
2023/05/27 11:11:00;;;;;;;18.13;16.80;;;21.20;99.90;;;;;;4899893;29;20481;-83
2023/05/27 11:13:32;;;;;;;17.57;16.47;;;21.30;99.90;;;;;;4899544;29;20474;-80
2023/05/27 11:16:02;;;;;;;18.95;17.75;;;21.40;99.90;;;;;;4898570;29;20570;-82
2023/05/27 11:18:38;;;;;;;19.23;18.23;;;21.40;99.90;;;;;;4898421;29;20652;-82
2023/05/27 11:21:06;;;;;;;19.00;17.70;;;21.50;99.90;;;;;;4897009;29;20504;-82
2023/05/27 11:23:39;;;;;;;19.97;18.77;;;21.50;99.90;;;;;;4899837;29;21452;-83
2023/05/27 11:26:17;;;;;;;19.60;18.10;;;21.60;99.90;;;;;;4899686;29;20484;-82
2023/05/27 11:28:54;;;;;;;18.60;17.50;;;21.60;99.90;;;;;;4900989;29;20471;-87
2023/05/27 11:31:57;;;;;;;18.80;17.40;;;21.60;99.90;;;;;;4903209;29;20892;-83
2023/05/27 11:34:25;;;;;;;18.53;17.53;;;21.70;99.90;;;;;;4898021;29;20578;-83
2023/05/27 11:36:55;;;;;;;19.10;17.90;;;21.70;99.90;;;;;;4900020;29;20473;-82
2023/05/27 11:39:52;;;;;;;19.63;18.17;;;21.70;99.90;;;;;;4898161;29;20567;-82
2023/05/27 11:42:52;;;;;;;19.33;18.33;;;21.60;99.90;;;;;;4901676;29;20494;-81
2023/05/27 11:48:29;;;;;;;18.63;17.35;;;21.60;99.90;;;;;;4887021;29;21577;-80
2023/05/27 11:51:02;;;;;;;19.07;17.40;;;21.70;99.90;;;;;;4898989;29;20238;-82
2023/05/27 11:53:30;;;;;;;17.30;16.20;;;21.80;99.90;;;;;;4895649;29;20523;-81
2023/05/27 11:56:31;;;;;;;18.30;17.03;;;21.90;99.90;;;;;;4897246;29;20646;-80
2023/05/27 11:59:03;;;;;;;19.20;18.10;;;21.90;99.90;;;;;;4899587;29;21059;-81
2023/05/27 12:01:45;;;;;;;18.70;17.60;;;21.90;99.90;;;;;;4898683;29;20493;-80
2023/05/27 12:04:56;;;;;;;19.27;18.03;;;21.90;99.90;;;;;;4876288;29;20471;-83
2023/05/27 12:07:40;;;;;;;19.13;17.87;;;21.90;99.90;;;;;;4861538;29;20639;-80
2023/05/27 12:13:30;;;;;;;18.10;16.93;;;21.90;99.90;;;;;;4864899;29;20582;-81
2023/05/27 12:16:36;;;;;;;18.30;17.50;;;21.80;99.90;;;;;;4860922;29;20468;-80
2023/05/27 12:21:51;;;;;;;18.25;17.05;;;21.90;99.90;;;;;;4859609;29;20510;-82
2023/05/27 12:28:28;;;;;;;17.50;16.50;;;21.90;99.90;;;;;;4857164;29;20526;-82
2023/05/27 12:31:19;;;;;;;;;;;;;;;;;;;;;
2023/05/27 12:37:41;;;;;;;17.57;16.50;;;22.00;99.90;;;;;;4773017;30;20521;-80
2023/05/27 12:43:20;;;;;;;17.93;16.80;;;22.10;99.90;;;;;;4915431;29;20469;-83
2023/05/27 12:46:05;;;;;;;19.50;17.80;;;22.10;99.90;;;;;;4909667;29;20552;-83
2023/05/27 12:49:59;;;;;;;16.97;16.03;;;22.10;99.90;;;;;;4911023;29;20449;-86
2023/05/27 12:53:46;;;;;;;18.30;17.30;;;22.20;99.90;;;;;;4923008;29;20524;-86
2023/05/27 13:04:03;;;;;;;17.10;16.20;;;22.20;99.90;;;;;;4905388;29;21106;-84
2023/05/27 13:06:40;;;;;;;19.47;17.77;;;22.40;99.90;;;;;;4900822;29;20502;-84
2023/05/27 13:09:21;;;;;;;17.83;16.73;;;22.50;99.90;;;;;;4896610;29;20463;-83
2023/05/27 13:15:51;;;;;;;19.13;17.53;;;22.50;99.90;;;;;;4858961;29;20465;-81
2023/05/27 13:18:20;;;;;;;19.03;17.40;;;22.50;99.90;;;;;;4900901;29;20537;-83
2023/05/27 13:20:50;;;;;;;17.00;16.20;;;22.50;99.90;;;;;;4896961;29;20477;-83
2023/05/27 13:23:20;;;;;;;18.43;17.40;;;22.40;99.90;;;;;;4902095;29;20465;-83
2023/05/27 13:25:48;;;;;;;18.73;17.23;;;22.40;99.90;;;;;;4903687;29;20489;-83
2023/05/27 13:28:16;;;;;;;18.87;17.80;;;22.40;99.90;;;;;;4903509;29;20474;-83
2023/05/27 13:30:45;;;;;;;19.35;17.98;;;22.40;99.90;;;;;;4897824;29;20466;-81
2023/05/27 13:33:13;;;;;;;17.83;16.83;;;22.40;99.90;;;;;;4902752;29;20205;-83
2023/05/27 13:35:41;;;;;;;19.20;17.80;;;22.50;99.90;;;;;;4902397;29;22844;-82
2023/05/27 13:38:13;;;;;;;19.47;18.30;;;22.50;99.90;;;;;;4898725;29;20473;-83
2023/05/27 13:40:41;;;;;;;19.13;17.80;;;22.50;99.90;;;;;;4893845;29;20491;-88
2023/05/27 13:43:09;;;;;;;18.53;17.20;;;22.50;99.90;;;;;;4900145;29;20460;-83
2023/05/27 13:45:38;;;;;;;18.27;16.83;;;22.50;99.90;;;;;;4902581;29;21022;-82
2023/05/27 13:48:06;;;;;;;19.00;17.40;;;22.50;99.90;;;;;;4901137;29;21114;-83
2023/05/27 13:50:34;;;;;;;19.30;17.60;;;22.50;99.90;;;;;;4903900;29;20517;-84
2023/05/27 13:53:02;;;;;;;19.03;17.70;;;22.60;99.90;;;;;;4902696;29;20473;-84
2023/05/27 13:55:32;;;;;;;18.50;17.07;;;22.60;99.90;;;;;;4906196;29;20463;-84
2023/05/27 13:58:01;;;;;;;18.40;17.17;;;22.60;99.90;;;;;;4905466;29;20453;-82
2023/05/27 14:00:30;;;;;;;17.23;16.13;;;22.60;99.90;;;;;;4900606;29;20492;-85
2023/05/27 14:02:59;;;;;;;17.43;16.43;;;22.60;99.90;;;;;;4905913;29;20469;-85
2023/05/27 14:05:28;;;;;;;17.10;15.87;;;22.60;99.90;;;;;;4901470;29;20455;-85
2023/05/27 14:07:56;;;;;;;16.13;15.30;;;22.60;99.90;;;;;;4905430;29;20469;-82
2023/05/27 14:10:25;;;;;;;17.60;16.50;;;22.60;99.90;;;;;;4899175;29;20474;-83
2023/05/27 14:12:56;;;;;;;17.40;16.37;;;22.60;99.90;;;;;;4902202;29;20467;-85
2023/05/27 14:15:27;;;;;;;17.30;16.07;;;22.60;99.90;;;;;;4906247;29;20459;-83
2023/05/27 14:18:00;;;;;;;17.50;16.40;;;22.60;99.90;;;;;;4907436;29;20530;-83
2023/05/27 14:20:28;;;;;;;16.67;15.67;;;22.60;99.90;;;;;;4904650;29;21253;-85
2023/05/27 14:22:58;;;;;;;17.23;16.10;;;22.60;99.90;;;;;;4901080;29;20526;-83
2023/05/27 14:25:26;;;;;;;16.53;15.33;;;22.60;99.90;;;;;;4901761;29;20536;-83
2023/05/27 14:28:01;;;;;;;15.63;14.77;;;22.60;99.90;;;;;;4898895;29;20480;-81
2023/05/27 14:30:30;;;;;;;15.57;14.27;;;22.60;99.90;;;;;;4898192;29;20580;-82
2023/05/27 14:33:01;;;;;;;16.40;15.40;;;22.60;99.90;;;;;;4900872;29;20463;-82
2023/05/27 14:35:30;;;;;;;15.17;14.27;;;22.60;99.90;;;;;;4898790;29;20462;-83
2023/05/27 14:37:58;;;;;;;14.83;14.00;;;22.60;99.90;;;;;;4904104;29;20560;-83
2023/05/27 14:40:27;;;;;;;14.67;13.97;;;22.70;99.90;;;;;;4897414;29;20550;-84
2023/05/27 14:42:56;;;;;;;15.90;14.97;;;22.60;99.90;;;;;;4899207;29;20967;-82
2023/05/27 14:45:25;;;;;;;14.53;13.37;;;22.70;99.90;;;;;;4899831;29;20547;-81
2023/05/27 14:47:54;;;;;;;14.53;13.53;;;22.70;99.90;;;;;;4895826;29;21130;-84
2023/05/27 14:50:24;;;;;;;15.63;14.57;;;22.70;99.90;;;;;;4899438;29;20487;-82
2023/05/27 14:52:54;;;;;;;15.10;14.20;;;22.70;99.90;;;;;;4899714;29;20458;-81
2023/05/27 14:55:22;;;;;;;15.50;14.50;;;22.70;99.90;;;;;;4898032;29;22572;-83
2023/05/27 14:57:51;;;;;;;14.57;13.77;;;22.70;99.90;;;;;;4894651;29;20458;-82
2023/05/27 15:00:21;;;;;;;14.47;13.57;;;22.60;99.90;;;;;;4893813;29;20478;-81
2023/05/27 15:02:49;;;;;;;14.40;13.60;;;22.70;99.90;;;;;;4902502;29;20493;-86
2023/05/27 15:05:18;;;;;;;13.63;12.70;;;22.70;99.90;;;;;;4901281;29;20450;-80
2023/05/27 15:07:46;;;;;;;14.73;13.87;;;22.70;99.90;;;;;;4900410;29;20629;-81